Time;durP1;ratioP1;P1;durP2;ratioP2;P2;SDS_P1;SDS_P2;PMS_P1;PMS_P2;Temp;Humidity;BMP_temperature;BMP_pressure;BME280_temperature;BME280_humidity;BME280_pressure;Samples;Min_cycle;Max_cycle;Signal;HPM_P1;HPM_P2
2021/12/04 04:33:25;;;;;;;4.10;3.70;;;;;;;7.13;62.76;97259.53;6926413;23;20248;-79
2021/12/04 04:37:00;;;;;;;4.43;4.03;;;;;;;8.05;60.84;97246.69;6855207;28;20214;-80
2021/12/04 04:59:01;;;;;;;5.07;4.50;;;;;;;8.89;58.02;97189.00;6877736;28;20191;-81
2021/12/04 05:02:41;;;;;;;4.30;3.90;;;;;;;9.03;57.22;97188.53;6872510;28;20281;-84
2021/12/04 05:13:22;;;;;;;5.20;4.70;;;;;;;8.90;59.09;97196.00;6874873;28;20214;-84
2021/12/04 05:16:49;;;;;;;5.27;4.67;;;;;;;8.87;58.87;97180.34;6878637;28;20267;-83
2021/12/04 05:20:14;;;;;;;5.67;4.60;;;;;;;8.78;58.43;97172.88;6846523;28;20196;-83
2021/12/04 05:23:39;;;;;;;5.77;5.13;;;;;;;8.97;58.98;97185.97;6846403;28;20241;-82
2021/12/04 05:27:02;;;;;;;5.60;4.70;;;;;;;8.73;58.88;97187.00;6846067;28;20199;-83
2021/12/04 05:30:24;;;;;;;5.40;4.80;;;;;;;8.88;59.00;97181.16;6852962;28;20651;-82
2021/12/04 05:33:47;;;;;;;5.90;5.30;;;;;;;8.86;58.75;97177.91;6847505;28;20222;-82
2021/12/04 05:37:08;;;;;;;7.90;4.90;;;;;;;8.98;58.33;97163.41;6847301;28;20211;-83
2021/12/04 05:40:30;;;;;;;5.07;4.40;;;;;;;8.99;58.71;97149.72;6847175;28;20208;-82
2021/12/04 05:43:53;;;;;;;7.00;5.00;;;;;;;9.21;58.21;97164.19;6863792;28;20231;-83
2021/12/04 05:47:19;;;;;;;6.30;5.77;;;;;;;9.09;58.50;97162.59;6873565;28;20225;-84
2021/12/04 05:51:02;;;;;;;4.73;4.33;;;;;;;8.96;58.56;97154.75;6872624;28;20308;-83
2021/12/04 05:54:33;;;;;;;5.30;4.80;;;;;;;8.96;59.19;97162.00;6871961;28;20230;-82
2021/12/04 05:57:55;;;;;;;5.50;4.93;;;;;;;8.86;59.05;97159.91;6866194;28;20291;-84
2021/12/04 06:01:19;;;;;;;4.77;4.33;;;;;;;8.60;59.37;97144.25;6872530;28;20214;-83
2021/12/04 06:04:41;;;;;;;5.00;4.37;;;;;;;8.81;60.09;97141.00;6868692;28;20219;-83
2021/12/04 06:08:02;;;;;;;5.27;4.00;;;;;;;8.98;59.61;97131.16;6846152;28;20229;-83
2021/12/04 06:11:24;;;;;;;5.17;4.67;;;;;;;9.12;58.72;97132.53;6845848;28;20254;-83
2021/12/04 06:14:48;;;;;;;4.90;4.37;;;;;;;9.03;59.23;97142.03;6869150;28;20245;-83
2021/12/04 06:18:13;;;;;;;4.60;4.20;;;;;;;9.17;59.27;97138.03;6898961;28;20217;-83
2021/12/04 06:25:16;;;;;;;4.57;3.97;;;;;;;9.22;59.05;97136.25;6884213;28;20226;-83
2021/12/04 06:28:39;;;;;;;5.10;4.27;;;;;;;9.19;58.35;97127.84;6870360;28;20223;-83
2021/12/04 06:32:01;;;;;;;4.13;3.73;;;;;;;9.10;58.75;97126.59;6885123;28;20202;-82
2021/12/04 06:35:24;;;;;;;5.30;3.80;;;;;;;8.90;59.19;97128.00;6889775;28;20233;-83
2021/12/04 06:38:46;;;;;;;4.03;3.63;;;;;;;9.03;59.48;97118.63;6885275;28;20230;-84
2021/12/04 06:42:08;;;;;;;4.13;3.73;;;;;;;8.71;61.33;97130.00;6873276;28;20215;-83
2021/12/04 06:45:32;;;;;;;4.30;3.90;;;;;;;9.19;60.13;97123.28;6879945;28;20227;-83
2021/12/04 06:49:02;;;;;;;3.77;3.40;;;;;;;9.31;59.47;97096.38;6882041;28;20308;-83
2021/12/04 06:52:27;;;;;;;3.80;3.50;;;;;;;8.95;60.12;97096.69;6849083;28;20203;-83
2021/12/04 06:56:00;;;;;;;5.23;3.60;;;;;;;9.12;60.06;97086.84;6850165;28;20319;-82
2021/12/04 06:59:25;;;;;;;5.73;4.70;;;;;;;8.93;59.96;97086.16;6861064;28;20208;-83
2021/12/04 07:02:47;;;;;;;4.20;3.80;;;;;;;8.88;61.13;97077.19;6877713;28;20210;-84
2021/12/04 07:06:09;;;;;;;3.00;1.97;;;;;;;8.65;63.22;97090.66;6877254;28;20207;-82
2021/12/04 07:09:32;;;;;;;2.00;1.90;;;;;;;9.36;62.73;97083.84;6851978;29;20604;-83
2021/12/04 07:12:53;;;;;;;2.40;2.20;;;;;;;9.74;61.67;97078.66;6852195;28;20215;-86
2021/12/04 07:16:17;;;;;;;2.30;2.10;;;;;;;9.60;62.33;97080.03;6851678;28;20199;-84
2021/12/04 07:19:39;;;;;;;3.80;3.37;;;;;;;9.83;61.24;97082.59;6851351;29;20243;-84
2021/12/04 07:23:00;;;;;;;3.97;3.67;;;;;;;9.65;60.36;97073.91;6851145;28;20210;-86
2021/12/04 07:26:23;;;;;;;5.50;5.00;;;;;;;9.51;61.26;97076.06;6849703;28;20213;-82
2021/12/04 07:29:45;;;;;;;7.67;6.90;;;;;;;9.51;61.14;97094.09;6849818;28;20246;-83
2021/12/04 07:33:06;;;;;;;8.67;7.90;;;;;;;9.65;60.79;97077.44;6871051;28;20278;-81
2021/12/04 07:36:28;;;;;;;6.40;5.80;;;;;;;9.43;60.77;97064.88;6875901;28;20205;-82
2021/12/04 07:39:50;;;;;;;3.50;3.20;;;;;;;9.61;61.41;97070.06;6876014;28;20203;-83
2021/12/04 07:43:13;;;;;;;2.93;2.73;;;;;;;9.75;62.29;97058.75;6852908;28;20243;-82
2021/12/04 07:46:35;;;;;;;4.10;3.80;;;;;;;9.94;61.52;97072.81;6849183;28;20207;-82
2021/12/04 07:49:56;;;;;;;7.03;5.50;;;;;;;9.63;61.32;97076.81;6849528;28;20780;-82
2021/12/04 07:53:18;;;;;;;8.63;7.17;;;;;;;9.56;62.05;97072.69;6849280;28;20228;-82
2021/12/04 07:56:40;;;;;;;7.40;5.27;;;;;;;10.03;61.69;97068.69;6859105;28;20588;-82
2021/12/04 08:00:05;;;;;;;7.77;5.37;;;;;;;10.28;60.82;97069.13;6876399;28;20217;-82
2021/12/04 08:03:27;;;;;;;3.87;3.50;;;;;;;10.44;60.77;97068.28;6852027;28;20230;-82
2021/12/04 08:06:48;;;;;;;4.47;4.07;;;;;;;10.52;59.67;97073.28;6848596;28;20206;-83
2021/12/04 08:10:12;;;;;;;5.50;4.50;;;;;;;10.11;60.91;97081.75;6849600;29;20230;-81
2021/12/04 08:13:34;;;;;;;5.30;4.80;;;;;;;10.08;60.83;97064.22;6871389;28;20232;-84
2021/12/04 08:16:57;;;;;;;7.17;6.47;;;;;;;9.96;61.12;97068.00;6876287;28;20688;-85
2021/12/04 08:20:18;;;;;;;5.23;4.80;;;;;;;9.01;64.28;97060.00;6876684;28;20705;-83
2021/12/04 08:23:40;;;;;;;5.63;4.97;;;;;;;9.45;64.07;97066.25;6852972;28;20317;-83
2021/12/04 08:27:03;;;;;;;9.73;7.57;;;;;;;9.59;63.86;97050.66;6871675;28;20204;-83
2021/12/04 08:30:26;;;;;;;7.47;6.67;;;;;;;9.21;65.25;97055.84;6896983;28;20226;-83
2021/12/04 08:33:50;;;;;;;7.00;6.30;;;;;;;9.92;63.56;97029.97;6860737;28;20232;-83
2021/12/04 08:37:11;;;;;;;17.20;12.63;;;;;;;10.03;62.70;97053.34;6874765;28;20197;-82
2021/12/04 08:40:33;;;;;;;5.60;4.93;;;;;;;9.50;65.58;97042.16;6873956;28;20223;-83
2021/12/04 08:43:55;;;;;;;3.57;3.27;;;;;;;9.77;65.71;97047.75;6871655;28;20235;-83
2021/12/04 08:47:17;;;;;;;2.30;2.10;;;;;;;10.22;64.84;97053.94;6875341;28;20220;-83
2021/12/04 08:50:41;;;;;;;2.87;2.40;;;;;;;10.94;63.55;97039.38;6873693;28;20224;-82
2021/12/04 08:54:04;;;;;;;9.73;6.47;;;;;;;10.55;61.53;97051.22;6849432;29;20222;-82
2021/12/04 08:57:25;;;;;;;9.87;7.90;;;;;;;10.43;62.13;97053.19;6849556;29;20208;-82
2021/12/04 09:00:49;;;;;;;8.83;7.40;;;;;;;10.59;61.63;97038.88;6850347;29;20211;-82
2021/12/04 09:04:15;;;;;;;9.57;7.77;;;;;;;10.76;61.32;97047.75;6851934;29;20233;-83
2021/12/04 09:07:38;;;;;;;11.30;9.27;;;;;;;10.54;61.05;97060.34;6864750;28;20188;-82
2021/12/04 09:11:05;;;;;;;13.93;9.83;;;;;;;10.23;61.85;97047.50;6878201;28;20239;-83
2021/12/04 09:14:30;;;;;;;13.87;10.53;;;;;;;10.69;60.58;97039.84;6884751;28;20236;-83
2021/12/04 09:17:51;;;;;;;14.27;11.37;;;;;;;10.23;62.17;97040.25;6875874;28;20247;-84
2021/12/04 09:21:13;;;;;;;12.27;8.83;;;;;;;10.31;62.17;97052.47;6902916;28;20237;-83
2021/12/04 09:24:40;;;;;;;9.63;8.07;;;;;;;10.15;62.74;97042.53;6873632;28;20403;-83
2021/12/04 09:28:12;;;;;;;10.63;7.50;;;;;;;10.06;63.13;97049.38;6876204;28;20361;-83
2021/12/04 09:31:59;;;;;;;10.23;8.97;;;;;;;10.28;62.14;97036.81;6900303;28;20200;-84
2021/12/04 10:05:15;;;;;;;14.50;12.47;;;;;;;10.98;62.36;96998.16;6737835;29;20234;-86
2021/12/04 10:12:39;;;;;;;13.23;11.70;;;;;;;9.52;66.69;96991.63;6730147;29;20258;-85
2021/12/04 10:20:10;;;;;;;15.57;11.70;;;;;;;10.47;64.15;96979.72;6802893;29;20207;-86
2021/12/04 10:34:49;;;;;;;12.43;10.77;;;;;;;11.18;63.41;96946.34;6851716;29;20214;-87
2021/12/04 10:38:17;;;;;;;12.40;10.97;;;;;;;11.49;63.08;96951.81;6851468;29;20224;-84
2021/12/04 10:41:43;;;;;;;10.53;9.43;;;;;;;11.97;62.52;96937.38;6851052;29;20237;-83
2021/12/04 10:45:05;;;;;;;9.30;8.40;;;;;;;12.12;60.59;96919.41;6897088;23;20253;-84
2021/12/04 10:48:33;;;;;;;9.80;8.80;;;;;;;12.12;61.76;96915.88;6899733;28;20616;-85
2021/12/04 10:52:02;;;;;;;8.37;7.57;;;;;;;12.17;61.35;96887.00;6904459;28;20671;-87
2021/12/04 10:55:29;;;;;;;15.87;11.00;;;;;;;11.96;62.31;96895.25;6905208;28;20225;-84
2021/12/04 10:59:10;;;;;;;15.10;10.40;;;;;;;12.29;62.12;96894.91;6905686;28;20203;-84
2021/12/04 11:02:38;;;;;;;11.03;9.37;;;;;;;12.67;60.50;96883.75;6905391;28;20282;-83
2021/12/04 11:40:21;;;;;;;11.03;8.67;;;;;;;12.69;63.31;96809.41;7035012;28;20201;-83
2021/12/04 11:43:57;;;;;;;14.57;9.67;;;;;;;13.20;62.41;96807.63;7039208;28;20229;-89
2021/12/04 11:47:19;;;;;;;16.00;11.07;;;;;;;12.71;62.98;96791.03;7057236;28;20265;-84
2021/12/04 11:50:50;;;;;;;17.17;10.87;;;;;;;13.23;62.65;96809.78;7046399;28;20239;-86
2021/12/04 11:54:13;;;;;;;5.83;4.97;;;;;;;13.27;64.01;96816.31;7045029;28;20223;-87
2021/12/04 11:57:36;;;;;;;4.83;4.33;;;;;;;13.36;63.39;96801.13;7041554;28;20201;-84
2021/12/04 12:01:01;;;;;;;10.80;8.53;;;;;;;13.31;62.33;96807.38;7036128;28;20197;-84
2021/12/04 12:04:33;;;;;;;4.33;3.93;;;;;;;12.89;64.82;96784.28;7033854;28;20232;-84
2021/12/04 12:07:58;;;;;;;3.50;3.10;;;;;;;13.35;64.05;96770.56;7035936;28;20222;-87
2021/12/04 12:11:27;;;;;;;3.40;3.10;;;;;;;13.26;64.07;96776.78;7043235;28;20240;-86
2021/12/04 12:14:53;;;;;;;2.80;2.60;;;;;;;13.99;62.07;96760.66;7032496;28;20221;-87
2021/12/04 12:18:17;;;;;;;4.20;2.63;;;;;;;13.95;62.38;96762.34;7033195;28;20193;-84
2021/12/04 12:21:51;;;;;;;3.23;2.80;;;;;;;14.02;61.54;96741.16;7033648;28;20209;-84
2021/12/04 12:25:24;;;;;;;3.50;3.20;;;;;;;13.70;62.79;96750.75;7031876;28;20213;-86
2021/12/04 12:32:48;;;;;;;2.23;2.10;;;;;;;13.89;63.36;96735.53;7032385;28;20232;-87
2021/12/04 12:36:13;;;;;;;1.93;1.83;;;;;;;14.57;60.59;96735.50;7023541;28;20217;-85
2021/12/04 12:39:34;;;;;;;2.83;2.27;;;;;;;14.68;59.89;96728.13;7031827;28;20654;-84
2021/12/04 12:42:57;;;;;;;3.53;2.40;;;;;;;14.69;59.33;96735.97;7019193;28;20194;-84
2021/12/04 12:46:20;;;;;;;2.70;2.50;;;;;;;14.30;59.93;96707.19;7013013;28;20233;-83
2021/12/04 12:49:43;;;;;;;3.20;2.47;;;;;;;14.22;60.07;96722.13;7012776;28;20202;-83
2021/12/04 12:53:08;;;;;;;4.50;2.30;;;;;;;14.63;59.48;96737.09;7013236;28;20205;-84
2021/12/04 12:56:31;;;;;;;3.70;2.53;;;;;;;14.46;59.69;96733.16;7019362;28;20204;-82
2021/12/04 13:11:41;;;;;;;2.20;2.00;;;;;;;13.70;62.48;96713.63;7013180;28;20213;-84
2021/12/04 13:15:05;;;;;;;2.27;2.07;;;;;;;13.68;62.75;96683.31;7012793;28;20213;-84
2021/12/04 13:18:28;;;;;;;2.63;2.43;;;;;;;13.58;63.40;96706.91;7013917;28;20213;-86
2021/12/04 13:21:51;;;;;;;2.00;1.83;;;;;;;13.63;63.40;96720.44;7013236;28;20246;-85
2021/12/04 13:25:13;;;;;;;1.40;1.40;;;;;;;13.57;62.98;96705.31;7013393;28;20228;-86
2021/12/04 13:28:37;;;;;;;1.60;1.50;;;;;;;13.86;62.58;96704.38;7012900;28;20205;-84
2021/12/04 13:32:03;;;;;;;1.50;1.40;;;;;;;13.56;63.35;96712.59;7012872;28;20446;-85
2021/12/04 13:35:25;;;;;;;1.37;1.20;;;;;;;13.42;63.64;96697.19;7012343;28;20758;-85
2021/12/04 13:38:53;;;;;;;1.73;1.63;;;;;;;14.03;62.14;96693.19;7010278;28;20201;-84
2021/12/04 13:42:15;;;;;;;1.80;1.70;;;;;;;13.79;62.88;96700.34;7002304;28;20197;-85
2021/12/04 13:45:37;;;;;;;1.93;1.40;;;;;;;13.16;63.91;96676.69;7007364;28;20226;-85
2021/12/04 13:49:04;;;;;;;1.90;1.70;;;;;;;13.86;62.56;96688.13;7011431;28;20204;-85
2021/12/04 13:52:28;;;;;;;1.83;1.73;;;;;;;14.38;60.73;96706.59;7011664;28;20221;-84
2021/12/04 13:55:53;;;;;;;1.90;1.77;;;;;;;14.15;60.88;96693.72;7028147;28;20230;-85
2021/12/04 13:59:15;;;;;;;1.60;1.50;;;;;;;14.06;61.43;96700.78;7012232;28;20213;-85
2021/12/04 14:02:37;;;;;;;1.60;1.50;;;;;;;13.81;62.30;96717.13;7011778;28;20206;-85
2021/12/04 14:06:03;;;;;;;1.63;1.53;;;;;;;13.85;61.93;96710.06;7011067;28;20221;-84
2021/12/04 14:09:35;;;;;;;1.70;1.60;;;;;;;13.55;62.29;96718.28;7012314;28;20627;-83
2021/12/04 14:12:58;;;;;;;1.70;1.60;;;;;;;13.32;63.01;96721.56;7012007;28;20225;-86
2021/12/04 14:16:23;;;;;;;1.80;1.70;;;;;;;13.54;62.39;96728.31;7010360;28;20222;-86
2021/12/04 14:19:45;;;;;;;1.47;1.37;;;;;;;13.56;63.11;96742.38;7011556;28;20182;-87
2021/12/04 14:23:09;;;;;;;1.70;1.60;;;;;;;13.67;62.26;96743.16;7012152;28;20216;-84
2021/12/04 14:26:31;;;;;;;1.90;1.70;;;;;;;13.25;63.84;96689.38;7026673;28;20298;-85
2021/12/04 14:29:56;;;;;;;2.67;2.47;;;;;;;13.22;64.36;96749.44;6983508;28;20252;-85
2021/12/04 14:33:20;;;;;;;2.63;1.47;;;;;;;12.97;64.87;96737.81;7002552;28;20202;-86
2021/12/04 14:36:45;;;;;;;1.80;1.70;;;;;;;13.00;65.17;96727.28;7015507;28;20201;-85
2021/12/04 14:40:12;;;;;;;2.43;1.73;;;;;;;13.07;65.21;96743.22;7011948;28;20189;-85
2021/12/04 14:43:37;;;;;;;2.20;1.77;;;;;;;13.02;65.62;96737.81;7011106;28;20685;-86
2021/12/04 14:46:59;;;;;;;1.90;1.80;;;;;;;13.06;65.31;96737.03;7003581;28;20254;-86
2021/12/04 14:50:23;;;;;;;1.73;1.63;;;;;;;12.99;65.52;96757.31;7011109;28;20229;-86
2021/12/04 14:53:48;;;;;;;1.70;1.60;;;;;;;12.96;65.74;96750.53;7010219;28;20222;-86
2021/12/04 14:57:16;;;;;;;1.50;1.43;;;;;;;12.85;65.91;96721.00;7010969;28;20227;-85
2021/12/04 15:00:39;;;;;;;1.40;1.40;;;;;;;13.12;65.18;96745.94;7010922;28;20201;-85
2021/12/04 15:04:03;;;;;;;1.50;1.50;;;;;;;12.86;65.71;96752.41;7011220;28;20232;-85
2021/12/04 15:07:27;;;;;;;1.57;1.10;;;;;;;12.82;65.64;96754.00;7011336;28;20227;-85
2021/12/04 15:10:55;;;;;;;1.40;1.30;;;;;;;13.08;65.40;96771.91;7011005;28;20226;-86
2021/12/04 15:14:31;;;;;;;1.67;1.57;;;;;;;13.17;64.98;96767.59;7011924;28;20727;-84
2021/12/04 15:17:54;;;;;;;1.60;1.50;;;;;;;13.14;64.92;96755.41;7001791;28;20593;-86
2021/12/04 15:21:18;;;;;;;1.40;1.40;;;;;;;13.28;64.08;96758.38;7011141;28;20209;-85
2021/12/04 15:24:42;;;;;;;1.57;1.47;;;;;;;13.23;63.69;96759.19;7011964;28;20245;-85
2021/12/04 15:28:15;;;;;;;1.20;1.20;;;;;;;12.97;64.71;96752.16;7038342;28;20201;-84
2021/12/04 15:31:40;;;;;;;1.33;1.33;;;;;;;13.16;64.04;96747.81;7012219;28;20225;-85
2021/12/04 15:35:15;;;;;;;1.57;1.47;;;;;;;12.91;64.67;96764.03;7010073;28;20225;-84
2021/12/04 15:38:42;;;;;;;1.50;1.40;;;;;;;12.93;64.26;96763.75;7011069;28;20186;-84
2021/12/04 15:42:19;;;;;;;1.50;1.40;;;;;;;13.41;63.17;96772.19;7003026;28;20397;-85
2021/12/04 15:45:54;;;;;;;1.70;1.60;;;;;;;13.21;63.32;96784.91;7007837;28;20248;-85
2021/12/04 15:49:52;;;;;;;1.53;1.40;;;;;;;13.40;62.88;96796.81;7002664;28;20243;-83
2021/12/04 15:53:15;;;;;;;1.93;1.70;;;;;;;13.37;62.73;96784.63;7006876;28;20286;-85
2021/12/04 15:56:44;;;;;;;1.53;1.47;;;;;;;13.21;62.82;96817.38;7007859;28;20205;-84
2021/12/04 16:00:09;;;;;;;1.80;1.70;;;;;;;13.40;62.37;96808.44;7005271;28;20193;-85
2021/12/04 16:03:32;;;;;;;1.83;1.50;;;;;;;12.99;63.30;96811.41;7010865;28;20220;-85
2021/12/04 16:06:57;;;;;;;3.13;1.80;;;;;;;13.29;62.52;96814.13;7012160;28;20205;-84
2021/12/04 16:10:26;;;;;;;1.70;1.60;;;;;;;13.31;62.08;96825.47;7027536;28;20212;-85
2021/12/04 16:13:53;;;;;;;2.07;1.90;;;;;;;13.63;60.59;96826.03;7016659;28;20228;-85
2021/12/04 16:17:14;;;;;;;2.17;1.80;;;;;;;13.93;58.88;96832.22;7015904;28;20202;-83
2021/12/04 16:20:37;;;;;;;2.23;2.03;;;;;;;13.87;59.14;96824.38;7013581;28;20205;-85
2021/12/04 16:24:00;;;;;;;1.70;1.60;;;;;;;13.95;59.47;96831.94;7012987;28;20222;-85
2021/12/04 16:27:26;;;;;;;2.03;1.80;;;;;;;14.34;58.20;96841.88;7016225;28;20277;-86
2021/12/04 16:30:54;;;;;;;1.63;1.53;;;;;;;14.49;57.47;96832.88;7011441;28;20228;-85
2021/12/04 16:37:55;;;;;;;2.37;1.97;;;;;;;14.54;58.05;96811.19;6958097;28;20205;-85
2021/12/04 16:41:19;;;;;;;2.17;1.70;;;;;;;14.60;57.78;96835.31;6983873;28;20203;-85
2021/12/04 16:44:42;;;;;;;8.67;5.97;;;;;;;14.33;58.68;96850.31;7000751;28;20228;-83
2021/12/04 16:48:07;;;;;;;2.50;1.60;;;;;;;14.14;58.13;96855.47;7014907;28;20201;-85
2021/12/04 16:55:37;;;;;;;2.20;1.70;;;;;;;14.16;58.29;96860.63;7012227;28;20218;-83
2021/12/04 16:59:03;;;;;;;1.60;1.50;;;;;;;13.81;59.57;96876.94;7011363;28;20205;-82
2021/12/04 17:02:27;;;;;;;2.47;2.27;;;;;;;14.13;58.44;96872.00;7012435;28;20199;-83
2021/12/04 17:05:51;;;;;;;2.13;1.93;;;;;;;14.50;57.31;96870.59;7012295;28;20217;-81
2021/12/04 17:09:12;;;;;;;4.63;2.63;;;;;;;14.31;57.75;96855.19;7012898;28;20221;-83
2021/12/04 17:12:36;;;;;;;2.10;2.00;;;;;;;14.07;57.96;96868.50;7035582;28;20212;-83
2021/12/04 17:16:00;;;;;;;2.20;2.00;;;;;;;13.74;59.25;96860.16;7013589;28;20241;-82
2021/12/04 17:19:23;;;;;;;2.43;2.23;;;;;;;13.64;59.59;96876.41;7011492;28;20232;-83
2021/12/04 17:22:47;;;;;;;2.20;2.00;;;;;;;13.42;60.85;96873.13;7011297;28;20201;-81
2021/12/04 17:26:09;;;;;;;2.77;1.60;;;;;;;13.67;59.79;96881.25;7010691;28;20300;-83
2021/12/04 17:29:31;;;;;;;2.60;1.90;;;;;;;13.64;59.83;96862.84;7010743;28;20216;-83
2021/12/04 17:32:54;;;;;;;1.60;1.50;;;;;;;13.61;59.77;96882.34;7011402;28;20724;-83
2021/12/04 17:36:16;;;;;;;2.43;2.20;;;;;;;13.20;60.16;96859.03;7010573;28;20224;-84
2021/12/04 17:39:40;;;;;;;2.10;2.00;;;;;;;14.02;58.36;96884.75;7009546;28;20225;-83
2021/12/04 17:43:03;;;;;;;2.20;1.90;;;;;;;13.98;58.01;96888.31;7011637;28;20206;-83
2021/12/04 17:46:25;;;;;;;1.83;1.70;;;;;;;13.87;57.71;96889.41;7011378;28;20788;-83
2021/12/04 17:49:56;;;;;;;2.30;2.10;;;;;;;14.23;57.09;96882.88;7020013;28;20680;-83
2021/12/04 17:53:18;;;;;;;1.63;1.53;;;;;;;13.44;58.37;96898.03;7001776;28;20217;-85
2021/12/04 17:56:41;;;;;;;1.70;1.60;;;;;;;13.48;58.59;96913.47;7014341;28;20216;-83
2021/12/04 18:00:04;;;;;;;2.03;1.90;;;;;;;13.63;58.05;96928.94;7038382;28;20212;-83
2021/12/04 18:03:27;;;;;;;2.03;1.90;;;;;;;13.78;57.15;96929.75;7013348;28;20217;-83
2021/12/04 18:06:50;;;;;;;3.67;3.30;;;;;;;13.61;57.71;96920.25;7008737;28;20238;-84
2021/12/04 18:10:26;;;;;;;1.70;1.60;;;;;;;13.58;57.21;96926.22;7009500;28;20209;-81
2021/12/04 18:13:51;;;;;;;3.70;2.90;;;;;;;13.15;59.43;96948.34;7012486;28;20237;-81
2021/12/04 18:17:13;;;;;;;5.53;3.80;;;;;;;13.44;59.17;96961.09;7008054;28;20205;-83
2021/12/04 18:20:35;;;;;;;7.80;3.20;;;;;;;13.34;59.85;96992.75;7008133;28;20224;-81
2021/12/04 18:23:58;;;;;;;5.83;2.90;;;;;;;13.01;56.87;96994.00;7003482;28;20536;-83
2021/12/04 18:27:20;;;;;;;2.40;1.40;;;;;;;12.26;55.81;97007.03;7006034;28;20201;-81
2021/12/04 18:30:42;;;;;;;2.13;1.77;;;;;;;12.32;56.11;97010.56;7010186;28;20224;-83
2021/12/04 18:34:05;;;;;;;1.60;1.50;;;;;;;12.20;56.01;97016.16;7010482;28;20224;-80
2021/12/04 18:37:27;;;;;;;1.97;1.87;;;;;;;12.11;55.77;97030.41;7011822;28;20205;-81
2021/12/04 18:40:50;;;;;;;4.93;4.43;;;;;;;12.61;54.31;97037.00;7011301;28;20210;-82
2021/12/04 18:44:13;;;;;;;1.80;1.70;;;;;;;12.31;54.01;97031.38;7023925;28;20221;-84
2021/12/04 18:47:36;;;;;;;1.90;1.80;;;;;;;12.20;54.79;97039.66;7020131;28;20252;-81
2021/12/04 18:50:57;;;;;;;1.80;1.70;;;;;;;11.95;54.93;97039.44;7012571;28;20201;-79
2021/12/04 18:54:19;;;;;;;2.17;2.00;;;;;;;12.09;55.34;97029.88;7009449;28;20229;-86
2021/12/04 18:57:43;;;;;;;2.40;2.20;;;;;;;12.17;54.36;97040.97;7009022;28;20197;-81
2021/12/04 19:01:05;;;;;;;2.10;2.00;;;;;;;11.85;54.92;97064.47;7011170;28;20221;-86
2021/12/04 19:04:27;;;;;;;1.80;1.70;;;;;;;11.95;54.82;97055.66;7035439;28;20212;-83
2021/12/04 19:07:49;;;;;;;2.30;2.10;;;;;;;11.90;54.80;97077.19;7011563;28;20205;-85
2021/12/04 19:11:11;;;;;;;1.90;1.80;;;;;;;11.43;55.61;97095.00;7012348;28;20203;-83
2021/12/04 19:14:35;;;;;;;1.77;1.67;;;;;;;11.69;55.58;97094.28;7008885;28;20237;-82
2021/12/04 19:17:57;;;;;;;3.30;3.00;;;;;;;11.75;55.36;97101.34;7022909;28;20207;-82
2021/12/04 19:21:19;;;;;;;2.50;2.00;;;;;;;11.40;55.33;97076.63;7017327;28;20201;-84
2021/12/04 19:24:41;;;;;;;2.77;2.03;;;;;;;11.48;56.08;97095.06;7022377;28;20224;-82
2021/12/04 19:28:05;;;;;;;1.80;1.70;;;;;;;11.87;55.15;97108.22;7008534;28;20213;-82
2021/12/04 19:31:34;;;;;;;8.33;6.80;;;;;;;11.90;54.74;97115.00;7007542;28;20231;-81
2021/12/04 19:35:17;;;;;;;10.97;8.43;;;;;;;11.68;55.07;97115.03;7008310;28;20240;-83
2021/12/04 19:53:31;;;;;;;3.57;2.93;;;;;;;11.20;56.29;97184.25;7011844;28;20223;-84
2021/12/04 19:57:02;;;;;;;1.97;1.83;;;;;;;11.38;55.31;97178.56;7013766;28;20190;-82
2021/12/04 20:00:29;;;;;;;2.40;2.30;;;;;;;11.54;55.46;97223.59;7013688;28;20705;-82
2021/12/04 20:07:58;;;;;;;2.10;2.00;;;;;;;11.37;57.60;97229.03;7001644;28;20278;-83
2021/12/04 20:15:00;;;;;;;3.33;1.90;;;;;;;11.20;58.65;97244.44;7014976;28;20693;-83
2021/12/04 20:18:22;;;;;;;2.13;2.03;;;;;;;10.75;59.68;97259.06;7014988;28;20232;-81
2021/12/04 20:21:50;;;;;;;2.00;1.90;;;;;;;10.46;61.22;97266.34;7014255;28;20666;-81
2021/12/04 20:25:19;;;;;;;2.50;2.30;;;;;;;10.61;60.65;97284.66;7018729;28;20364;-82
2021/12/04 20:32:35;;;;;;;2.50;2.30;;;;;;;10.59;58.61;97270.63;7008450;28;20225;-81
2021/12/04 20:40:27;;;;;;;2.50;2.30;;;;;;;11.13;58.15;97305.81;7093861;27;20556;-80
2021/12/04 21:09:53;;;;;;;2.00;1.90;;;;;;;10.78;56.24;97334.03;7118797;27;20278;-83
2021/12/04 21:50:27;;;;;;;4.23;2.43;;;;;;;10.30;54.31;97390.22;7062054;27;20187;-83
2021/12/04 21:53:50;;;;;;;5.30;2.40;;;;;;;10.08;54.02;97390.00;7078804;28;20212;-83
2021/12/04 21:57:32;;;;;;;4.67;2.33;;;;;;;9.91;55.44;97383.69;7078221;28;20235;-83
